« 「空の日」 能登空港 2014/10/12 sun | トップページ | 定点 富山空港 2014/10/14 tue »

2014/10/14

「空の日」その2 能登空港 2014/10/12 sun

能登空港空の日行事つづき

RJNW 120300Z 11004KT CAVOK 20/14 Q1021

20141012_rjnw_31ja893f

JA525Aの着陸待ちで待ちくたびれた防災の訓練展示が始まりました。

20141012_rjnw_32ja893f

まずは、ターミナル前でスリング救助デモ

20141012_rjnw_33ja893f

1回目のデモ終了

20141012_rjnw_34fdp

空港消防隊の放水展示

20141012_rjnw_35ja893f

学園側に移動して2回目の展示です。

20141012_rjnw_36ja893f

ストレッチャーを使った吊り上げ救助で展示終了。

RJNW 120400Z 17004KT 080V230 9999 FEW030 BKN/// 20/14 Q1021

20141012_rjnw_37ja525a

ターミナル側へ移動するとサイテーションがエンジン始動中

20141012_rjnw_38ja525a

JA525A Cessna 525A Citation CJ1

20141012_rjnw_39ja525a

八尾へ帰って行きました。

20141012_rjnw_40rjnw

いつのまにか・・・ のと里山空港に

20141012_rjnw_41ja8777

学園のYS exJA8777 レインボーの会社から退役して早10年。

20141012_rjnw_42ja893f

隊員が昼食中の防災へり

20141012_rjnw_43jaa

日本航空学園を覗いて見ましょう。

20141012_rjnw_44jg

自衛隊車両の展示は、輪島分屯基地と第14普通科連隊

20141012_rjnw_45ja893f

JA893F B412 石川県消防防災

お腹も一杯になって、小松へ帰投。

RJNW 120500Z 19005KT 140V260 9999 FEW030 SCT160 BKN/// 20/15 Q1020

20141012_rjnw_46ja2397

本日ラストの見せ場、午後の学園フライトがスタート。

20141012_rjnw_47ja2435

午前のフライトに参加できなかったモグラ君も無事参加。

JA2435 SCHEIBE SF25C Falke

20141012_rjnw_48ja4228

やっぱりハスキーやね。でも、曳航するピュアグライダーは、ないのかね?

20141012_rjnw_49ja6113

ジェットレンジャーも続きます

20141012_rjnw_50ja2397

JA2397 Valentin Taifun 17E

20141012_rjnw_51mf

20141012_rjnw_52ja4228

JA4228 Christen industries A-1 Husky

20141012_rjnw_53ja2397

5機による編隊航過

20141012_rjnw_54ja6113

JA6113 Bell 206B

20141012_rjnw_55ja2397

20141012_rjnw_56ja2397

20141012_rjnw_57mf

会場から見たレベルオープナー? サンライズとも見える

20141012_rjnw_58ja2436

JA2436 SCHEIBE SF25C Falke

20141012_rjnw_59ja2435

JA2435 SCHEIBE SF25C Falke

RJNW 120600Z 11006KT 9999 FEW030 SCT140 BKN/// 19/15 Q1020

20141012_rjnw_60ja5317

岡南からやってきていた岡山航空も帰投です。

20141012_rjnw_61ja5317

JA5317 Aircraft: Beechcraft 58 Baron OAS

20141012_rjnw_62ja5317

20141012_rjnw_63ja6113

ヘリは双葉に帰るのかな?

20141012_rjnw_64ja67an

そうこうしていると午後の定期便が・・

20141012_rjnw_65ja67an

ANA749 RJTT-RJNW JA67AN B737-881

20141012_rjnw_66ja67an

離陸まで見切れないで、離脱して帰路についた。

RJNW 120700Z 11004KT 070V160 CAVOK 18/15 Q1020

|

« 「空の日」 能登空港 2014/10/12 sun | トップページ | 定点 富山空港 2014/10/14 tue »

能登空港」カテゴリの記事

コメント

コメントを書く



(ウェブ上には掲載しません)


コメントは記事投稿者が公開するまで表示されません。



トラックバック


この記事へのトラックバック一覧です: 「空の日」その2 能登空港 2014/10/12 sun:

« 「空の日」 能登空港 2014/10/12 sun | トップページ | 定点 富山空港 2014/10/14 tue »